CMB825 Details

Departure: Grantley Adams International Airport (TBPB)
Arrival: RAF Ascension Island (FHAW)
Route: BGI ROVBA ASALI UL695 EGIMI UL695 FHAW
Notes: USTRANSCOM CONTRACT FLIGHT | PAYLOAD RESTRICTED | ETOPS


Current Weather Information
TBPB 251200Z 11013KT 9999 SCT024 29/23 Q1014 NOSIG
No METAR available for FHAW.